createdAt,value
2022-12-11T00:08:35.867Z,0
2022-12-11T00:18:12.413Z,0
2022-12-11T00:27:49.055Z,0
2022-12-11T00:37:25.512Z,0
2022-12-11T00:47:02.267Z,0
2022-12-11T00:56:39.051Z,0
2022-12-11T01:06:15.640Z,0
2022-12-11T01:15:52.071Z,0
2022-12-11T01:25:28.527Z,0
2022-12-11T01:35:05.387Z,0
2022-12-11T01:44:41.687Z,0
2022-12-11T01:54:18.215Z,0
2022-12-11T02:03:54.720Z,0
2022-12-11T02:13:31.470Z,0
2022-12-11T02:23:08.123Z,0
2022-12-11T02:32:44.632Z,0
2022-12-11T02:42:21.063Z,0
2022-12-11T02:51:57.758Z,0
2022-12-11T03:01:34.381Z,0
2022-12-11T03:11:10.730Z,0
2022-12-11T03:20:47.567Z,0
2022-12-11T03:30:26.032Z,0
2022-12-11T03:40:01.117Z,0
2022-12-11T03:49:37.632Z,0
2022-12-11T03:59:14.047Z,0
2022-12-11T04:08:50.756Z,0
2022-12-11T04:18:27.504Z,0
2022-12-11T04:28:03.723Z,0
2022-12-11T04:37:40.195Z,0
2022-12-11T04:47:18.543Z,0
2022-12-11T04:56:53.297Z,0
2022-12-11T05:06:29.624Z,0
2022-12-11T05:16:08.041Z,0
2022-12-11T05:25:43.599Z,0
2022-12-11T05:35:19.944Z,0
2022-12-11T05:44:56.237Z,0
2022-12-11T05:54:32.796Z,0
2022-12-11T06:04:09.442Z,0
2022-12-11T06:13:45.411Z,0
2022-12-11T06:23:21.914Z,0
2022-12-11T06:32:58.295Z,0.83
2022-12-11T06:42:34.986Z,3.33
2022-12-11T06:52:15.071Z,13.33
2022-12-11T07:01:48.250Z,38.33
2022-12-11T07:11:24.292Z,70
2022-12-11T07:21:00.716Z,93.33
2022-12-11T07:30:37.158Z,128.33
2022-12-11T07:40:13.850Z,214.17
2022-12-11T07:49:50.436Z,205
2022-12-11T07:59:27.222Z,295.83
2022-12-11T08:09:03.904Z,351.67
2022-12-11T08:18:40.794Z,540
2022-12-11T08:28:17.824Z,527.5
2022-12-11T08:37:54.804Z,537.5
2022-12-11T08:47:31.147Z,531.67
2022-12-11T08:57:07.883Z,695
2022-12-11T09:06:44.553Z,875.83
2022-12-11T09:16:21.474Z,1015.83
2022-12-11T09:25:57.734Z,963.33
2022-12-11T09:35:35.085Z,1208.33
2022-12-11T09:45:11.710Z,1524.17
2022-12-11T09:54:49.057Z,1642.5
2022-12-11T10:04:26.375Z,1896.67
2022-12-11T10:14:03.981Z,1690
2022-12-11T10:23:40.630Z,1254.17
2022-12-11T10:33:19.024Z,1531.67
2022-12-11T10:42:54.363Z,1551.67
2022-12-11T10:52:30.687Z,1443.33
2022-12-11T11:02:06.980Z,1233.33
2022-12-11T11:11:45.356Z,990
2022-12-11T11:21:20.186Z,965.83
2022-12-11T11:30:56.856Z,906.67
2022-12-11T11:40:33.154Z,843.33
2022-12-11T11:50:09.676Z,894.17
2022-12-11T11:59:45.796Z,680
2022-12-11T12:09:23.791Z,540
2022-12-11T12:18:58.021Z,378.33
2022-12-11T12:28:34.203Z,362.5
2022-12-11T12:38:10.203Z,335
2022-12-11T12:47:53.591Z,354.17
2022-12-11T12:57:23.039Z,360
2022-12-11T13:06:36.816Z,403.33
2022-12-11T13:16:13.503Z,454.17
2022-12-11T13:25:49.615Z,435
2022-12-11T13:35:26.274Z,410
2022-12-11T13:45:02.346Z,360.83
2022-12-11T13:54:38.961Z,426.67
2022-12-11T14:04:15.112Z,493.33
2022-12-11T14:13:52.445Z,654.17
2022-12-11T14:23:28.966Z,531.67
2022-12-11T14:33:05.112Z,311.67
2022-12-11T14:42:40.944Z,115
2022-12-11T14:52:16.290Z,65.83
2022-12-11T15:01:52.565Z,35
2022-12-11T15:11:28.928Z,16.67
2022-12-11T15:21:05.302Z,5.83
2022-12-11T15:30:41.693Z,0.83
2022-12-11T15:40:18.220Z,0
2022-12-11T15:49:54.790Z,0
2022-12-11T15:59:30.739Z,0
2022-12-11T16:09:07.387Z,0
2022-12-11T16:18:43.711Z,0
2022-12-11T16:28:20.419Z,0
2022-12-11T16:37:56.368Z,0
2022-12-11T16:47:33.031Z,0
2022-12-11T16:57:09.051Z,0
2022-12-11T17:06:45.279Z,0
2022-12-11T17:16:21.677Z,0
2022-12-11T17:25:57.934Z,0
2022-12-11T17:35:34.264Z,0
2022-12-11T17:45:10.859Z,0
2022-12-11T17:54:47.742Z,0
2022-12-11T18:04:22.959Z,0
2022-12-11T18:13:58.902Z,0
2022-12-11T18:23:34.713Z,0
2022-12-11T18:33:10.470Z,0
2022-12-11T18:42:46.438Z,0
2022-12-11T18:52:24.879Z,0
2022-12-11T19:01:59.993Z,0
2022-12-11T19:11:37.818Z,0
2022-12-11T19:21:14.865Z,0
2022-12-11T19:30:50.926Z,0
2022-12-11T19:40:27.131Z,0
2022-12-11T19:50:09.051Z,0
2022-12-11T19:59:39.733Z,0
2022-12-11T20:09:16.448Z,0
2022-12-11T20:18:52.789Z,0
2022-12-11T20:28:29.453Z,0
2022-12-11T20:38:05.876Z,0
2022-12-11T20:47:42.928Z,0
2022-12-11T20:57:18.276Z,0
2022-12-11T21:06:56.958Z,0
2022-12-11T21:16:32.298Z,0
2022-12-11T21:26:09.571Z,0
2022-12-11T21:35:46.305Z,0
2022-12-11T21:46:00.179Z,0
2022-12-11T21:55:05.249Z,0
2022-12-11T22:04:35.621Z,0
2022-12-11T22:14:11.980Z,0
2022-12-11T22:23:47.872Z,0
2022-12-11T22:33:24.336Z,0
2022-12-11T22:43:06.963Z,0
2022-12-11T22:52:42.793Z,0
2022-12-11T23:02:14.209Z,0
2022-12-11T23:11:51.108Z,0
2022-12-11T23:21:27.620Z,0
2022-12-11T23:31:04.520Z,0
2022-12-11T23:40:41.001Z,0
2022-12-11T23:50:17.683Z,0
2022-12-11T23:59:54.433Z,0
